This is the latest recevied weather packets stored in our database for station/object KU9TRY. If no packets are shown the sender has not sent any weather packets the latest 10 day(s).
| Time | Temp. | Humidity | Pressure | Rain* | Wind** | Luminosity | Snow |
|---|---|---|---|---|---|---|---|
| 1777837627 | 18.33° C | 35% | 1019.4 hPa | 0 mm | - | 46 W/m² | - |
| 1777837323 | 17.78° C | 36% | 1019.6 hPa | 0 mm | - | 45 W/m² | - |
| 1777837020 | 17.78° C | 35% | 1019.6 hPa | 0 mm | - | 46 W/m² | - |
| 1777836715 | 17.78° C | 36% | 1019.8 hPa | 0 mm | - | 46 W/m² | - |
| 1777836411 | 17.78° C | 34% | 1019.7 hPa | 0 mm | - | 48 W/m² | - |
| 1777836107 | 17.22° C | 37% | 1019.9 hPa | 0 mm | - | 48 W/m² | - |
| 1777835803 | 17.78° C | 33% | 1019.8 hPa | 0 mm | - | 48 W/m² | - |
| 1777835501 | 17.78° C | 36% | 1020 hPa | 0 mm | - | 49 W/m² | - |
| 1777835198 | 17.22° C | 33% | 1020.1 hPa | 0 mm | - | 49 W/m² | - |
| 1777834895 | 17.78° C | 36% | 1020.2 hPa | 0 mm | - | 50 W/m² | - |
| 1777834591 | 17.22° C | 37% | 1020.1 hPa | 0 mm | - | 52 W/m² | - |
| 1777834286 | 17.22° C | 41% | 1020.1 hPa | 0 mm | - | 52 W/m² | - |
| 1777833982 | 17.22° C | 35% | 1020.4 hPa | 0 mm | - | 53 W/m² | - |
| 1777833678 | 16.67° C | 35% | 1020.5 hPa | 0 mm | - | 53 W/m² | - |
| 1777833375 | 17.22° C | 34% | 1020.7 hPa | 0 mm | - | 54 W/m² | - |
| 1777833072 | 16.67° C | 39% | 1020.6 hPa | 0 mm | - | 55 W/m² | - |
| 1777832771 | 16.67° C | 37% | 1020.9 hPa | 0 mm | - | 79 W/m² | - |
| 1777832468 | 16.67° C | 36% | 1020.9 hPa | 0 mm | - | 88 W/m² | - |
| 1777832165 | 16.67° C | 36% | 1020.6 hPa | 0 mm | - | 63 W/m² | - |
| 1777831862 | 16.67° C | 38% | 1020.8 hPa | 0 mm | - | 58 W/m² | - |
| 1777831559 | 16.11° C | 41% | 1020.9 hPa | 0 mm | - | 59 W/m² | - |
| 1777831256 | 16.11° C | 40% | 1021.1 hPa | 0 mm | - | 60 W/m² | - |
| 1777830953 | 16.11° C | 38% | 1021.1 hPa | 0 mm | - | 61 W/m² | - |
| 1777830650 | 16.11° C | 44% | 1021.1 hPa | 0 mm | - | 63 W/m² | - |
| 1777830347 | 16.11° C | 41% | 1021.2 hPa | 0 mm | - | 65 W/m² | - |
* Rain latest hour (hover to see other rain measurements)
** Current wind speed in m/s (hover to see current wind gust speed)